Terminal Aerodrome Forecast
Issued by NWS Mobile, AL

Current Version | Previous Version | Text Only | Print | Product List | Glossary On
Versions: 1 2 3 4 5 6 7 8 9 10 11 12 13 14 15 16 17 18 19 20 21 22 23 24 25
000
FTUS44 KMOB 250550
TAFMOB
TAF
KMOB 250550Z 2506/2606 14016G21KT P6SM SCT017 BKN025
     FM251200 15013G22KT P6SM VCSH BKN025 OVC060 PROB30 2515/2521
      3SM TSRA BKN025CB
     FM260000 17006KT 5SM BR BKN025=

USA.gov is the U.S. government's official web portal to all federal, state and local government web resources and services.